sensor_id;sensor_type;location;lat;lon;timestamp;pressure;altitude;pressure_sealevel;temperature;humidity
37878;BME280;23715;53.652;8.516;2023-01-25T00:04:41;103948.42;;;3.78;100.00
37878;BME280;23715;53.652;8.516;2023-01-25T00:09:41;103942.17;;;3.81;100.00
37878;BME280;23715;53.652;8.516;2023-01-25T00:14:41;103946.23;;;3.73;100.00
37878;BME280;23715;53.652;8.516;2023-01-25T00:19:42;103953.52;;;3.43;100.00
37878;BME280;23715;53.652;8.516;2023-01-25T00:24:42;103933.45;;;3.60;100.00
37878;BME280;23715;53.652;8.516;2023-01-25T00:29:42;103933.90;;;3.61;100.00
37878;BME280;23715;53.652;8.516;2023-01-25T00:34:46;103938.81;;;3.56;100.00
37878;BME280;23715;53.652;8.516;2023-01-25T00:39:47;103920.12;;;3.63;100.00
37878;BME280;23715;53.652;8.516;2023-01-25T00:44:48;103916.08;;;3.69;100.00
37878;BME280;23715;53.652;8.516;2023-01-25T00:49:48;103910.30;;;3.71;100.00
37878;BME280;23715;53.652;8.516;2023-01-25T00:54:48;103900.64;;;3.60;100.00
37878;BME280;23715;53.652;8.516;2023-01-25T00:59:48;103902.44;;;3.55;100.00
37878;BME280;23715;53.652;8.516;2023-01-25T01:04:49;103906.23;;;3.18;100.00
37878;BME280;23715;53.652;8.516;2023-01-25T01:09:49;103904.80;;;3.35;100.00
37878;BME280;23715;53.652;8.516;2023-01-25T01:14:49;103897.32;;;3.28;100.00
37878;BME280;23715;53.652;8.516;2023-01-25T01:19:50;103907.45;;;3.37;100.00
37878;BME280;23715;53.652;8.516;2023-01-25T01:24:50;103898.55;;;3.44;100.00
37878;BME280;23715;53.652;8.516;2023-01-25T01:29:50;103895.89;;;3.41;100.00
37878;BME280;23715;53.652;8.516;2023-01-25T01:34:51;103892.94;;;3.18;100.00
37878;BME280;23715;53.652;8.516;2023-01-25T01:39:51;103889.08;;;2.97;100.00
37878;BME280;23715;53.652;8.516;2023-01-25T01:44:53;103896.59;;;2.96;100.00
37878;BME280;23715;53.652;8.516;2023-01-25T01:49:58;103896.22;;;2.88;100.00
37878;BME280;23715;53.652;8.516;2023-01-25T01:55:05;103904.98;;;3.03;100.00
37878;BME280;23715;53.652;8.516;2023-01-25T02:00:23;103904.08;;;3.07;100.00
37878;BME280;23715;53.652;8.516;2023-01-25T02:10:30;103888.98;;;3.10;100.00
37878;BME280;23715;53.652;8.516;2023-01-25T02:15:43;103877.37;;;3.25;100.00
37878;BME280;23715;53.652;8.516;2023-01-25T02:20:46;103878.81;;;3.07;100.00
37878;BME280;23715;53.652;8.516;2023-01-25T02:25:47;103877.53;;;3.01;100.00
37878;BME280;23715;53.652;8.516;2023-01-25T02:30:48;103870.96;;;2.88;100.00
37878;BME280;23715;53.652;8.516;2023-01-25T02:35:58;103865.11;;;3.03;100.00
37878;BME280;23715;53.652;8.516;2023-01-25T02:41:02;103861.94;;;3.16;100.00
37878;BME280;23715;53.652;8.516;2023-01-25T02:46:13;103859.05;;;2.79;100.00
37878;BME280;23715;53.652;8.516;2023-01-25T02:51:16;103851.91;;;2.86;100.00
37878;BME280;23715;53.652;8.516;2023-01-25T02:56:17;103845.34;;;2.70;100.00
37878;BME280;23715;53.652;8.516;2023-01-25T03:01:19;103851.62;;;2.46;100.00
37878;BME280;23715;53.652;8.516;2023-01-25T03:06:19;103840.44;;;2.74;100.00
37878;BME280;23715;53.652;8.516;2023-01-25T03:11:20;103838.80;;;2.49;100.00
37878;BME280;23715;53.652;8.516;2023-01-25T03:16:21;103837.02;;;2.49;100.00
37878;BME280;23715;53.652;8.516;2023-01-25T03:21:22;103830.41;;;2.40;100.00
37878;BME280;23715;53.652;8.516;2023-01-25T03:26:24;103834.39;;;2.40;100.00
37878;BME280;23715;53.652;8.516;2023-01-25T03:31:27;103826.87;;;2.37;100.00
37878;BME280;23715;53.652;8.516;2023-01-25T03:36:28;103824.70;;;2.27;100.00
37878;BME280;23715;53.652;8.516;2023-01-25T03:41:29;103822.47;;;2.36;100.00
37878;BME280;23715;53.652;8.516;2023-01-25T03:46:31;103822.38;;;2.54;100.00
37878;BME280;23715;53.652;8.516;2023-01-25T03:51:31;103809.64;;;2.30;100.00
37878;BME280;23715;53.652;8.516;2023-01-25T03:56:33;103808.80;;;2.16;100.00
37878;BME280;23715;53.652;8.516;2023-01-25T04:01:35;103809.30;;;2.02;100.00
37878;BME280;23715;53.652;8.516;2023-01-25T04:06:36;103815.46;;;2.11;100.00
37878;BME280;23715;53.652;8.516;2023-01-25T04:11:36;103804.39;;;2.10;100.00
37878;BME280;23715;53.652;8.516;2023-01-25T04:16:37;103797.76;;;2.17;100.00
37878;BME280;23715;53.652;8.516;2023-01-25T04:21:42;103787.58;;;2.10;100.00
37878;BME280;23715;53.652;8.516;2023-01-25T04:26:42;103780.92;;;2.22;100.00
37878;BME280;23715;53.652;8.516;2023-01-25T04:31:44;103769.45;;;2.06;100.00
37878;BME280;23715;53.652;8.516;2023-01-25T04:36:44;103759.71;;;2.08;100.00
37878;BME280;23715;53.652;8.516;2023-01-25T04:41:45;103759.71;;;2.08;100.00
37878;BME280;23715;53.652;8.516;2023-01-25T04:46:46;103746.86;;;2.15;100.00
37878;BME280;23715;53.652;8.516;2023-01-25T04:51:47;103743.81;;;1.99;100.00
37878;BME280;23715;53.652;8.516;2023-01-25T04:56:48;103730.54;;;2.05;100.00
37878;BME280;23715;53.652;8.516;2023-01-25T05:01:49;103725.69;;;2.00;100.00
37878;BME280;23715;53.652;8.516;2023-01-25T05:06:49;103714.61;;;2.05;100.00
37878;BME280;23715;53.652;8.516;2023-01-25T05:11:50;103713.28;;;2.01;100.00
37878;BME280;23715;53.652;8.516;2023-01-25T05:16:52;103712.41;;;2.00;100.00
37878;BME280;23715;53.652;8.516;2023-01-25T05:21:53;103705.74;;;2.08;100.00
37878;BME280;23715;53.652;8.516;2023-01-25T05:26:59;103698.61;;;2.18;100.00
37878;BME280;23715;53.652;8.516;2023-01-25T05:32:05;103715.97;;;1.98;100.00
37878;BME280;23715;53.652;8.516;2023-01-25T05:37:10;103715.09;;;1.94;100.00
37878;BME280;23715;53.652;8.516;2023-01-25T05:42:16;103705.32;;;2.07;100.00
37878;BME280;23715;53.652;8.516;2023-01-25T05:47:16;103714.22;;;1.92;100.00
37878;BME280;23715;53.652;8.516;2023-01-25T05:52:17;103721.76;;;1.83;100.00
37878;BME280;23715;53.652;8.516;2023-01-25T05:57:17;103718.66;;;1.90;100.00
37878;BME280;23715;53.652;8.516;2023-01-25T06:02:17;103727.94;;;1.90;100.00
37878;BME280;23715;53.652;8.516;2023-01-25T06:07:18;103727.36;;;2.24;100.00
37878;BME280;23715;53.652;8.516;2023-01-25T06:12:21;103730.50;;;2.13;100.00
37878;BME280;23715;53.652;8.516;2023-01-25T06:17:22;103726.95;;;2.12;100.00
37878;BME280;23715;53.652;8.516;2023-01-25T06:22:27;103716.33;;;2.19;100.00
37878;BME280;23715;53.652;8.516;2023-01-25T06:27:27;103727.04;;;1.91;100.00
37878;BME280;23715;53.652;8.516;2023-01-25T06:32:32;103720.88;;;1.84;100.00
37878;BME280;23715;53.652;8.516;2023-01-25T06:37:32;103715.55;;;1.89;100.00
37878;BME280;23715;53.652;8.516;2023-01-25T06:42:33;103708.06;;;1.81;100.00
37878;BME280;23715;53.652;8.516;2023-01-25T06:47:33;103705.38;;;1.85;100.00
37878;BME280;23715;53.652;8.516;2023-01-25T06:52:33;103697.00;;;1.83;100.00
37878;BME280;23715;53.652;8.516;2023-01-25T06:57:34;103704.96;;;1.84;100.00
37878;BME280;23715;53.652;8.516;2023-01-25T07:02:36;103691.69;;;1.80;100.00
37878;BME280;23715;53.652;8.516;2023-01-25T07:07:39;103688.16;;;1.81;100.00
37878;BME280;23715;53.652;8.516;2023-01-25T07:12:41;103697.03;;;1.77;100.00
37878;BME280;23715;53.652;8.516;2023-01-25T07:17:41;103689.04;;;1.78;100.00
37878;BME280;23715;53.652;8.516;2023-01-25T07:22:47;103688.98;;;1.93;100.00
37878;BME280;23715;53.652;8.516;2023-01-25T07:27:44;103673.84;;;2.12;100.00
37878;BME280;23715;53.652;8.516;2023-01-25T07:32:44;103674.02;;;1.79;100.00
37878;BME280;23715;53.652;8.516;2023-01-25T07:37:45;103664.67;;;1.89;100.00
37878;BME280;23715;53.652;8.516;2023-01-25T07:42:45;103643.31;;;2.15;100.00
37878;BME280;23715;53.652;8.516;2023-01-25T07:47:47;103636.45;;;1.68;100.00
37878;BME280;23715;53.652;8.516;2023-01-25T07:52:47;103636.45;;;1.68;100.00
37878;BME280;23715;53.652;8.516;2023-01-25T07:57:47;103647.00;;;1.90;100.00
37878;BME280;23715;53.652;8.516;2023-01-25T08:02:50;103644.00;;;1.66;100.00
37878;BME280;23715;53.652;8.516;2023-01-25T08:07:51;103644.34;;;1.90;100.00
37878;BME280;23715;53.652;8.516;2023-01-25T08:12:51;103650.98;;;1.87;100.00
37878;BME280;23715;53.652;8.516;2023-01-25T08:17:52;103640.50;;;1.56;100.00
37878;BME280;23715;53.652;8.516;2023-01-25T08:22:52;103644.44;;;1.59;100.00
37878;BME280;23715;53.652;8.516;2023-01-25T08:27:53;103646.19;;;1.66;100.00
37878;BME280;23715;53.652;8.516;2023-01-25T08:32:53;103624.94;;;1.74;100.00
37878;BME280;23715;53.652;8.516;2023-01-25T08:37:55;103631.00;;;1.99;100.00
37878;BME280;23715;53.652;8.516;2023-01-25T08:42:56;103635.30;;;2.23;100.00
37878;BME280;23715;53.652;8.516;2023-01-25T08:47:56;103622.13;;;2.06;100.00
37878;BME280;23715;53.652;8.516;2023-01-25T08:52:56;103619.05;;;1.99;100.00
37878;BME280;23715;53.652;8.516;2023-01-25T08:57:57;103614.81;;;1.63;100.00
37878;BME280;23715;53.652;8.516;2023-01-25T09:02:57;103602.80;;;1.80;100.00
37878;BME280;23715;53.652;8.516;2023-01-25T09:07:59;103595.25;;;1.90;100.00
37878;BME280;23715;53.652;8.516;2023-01-25T09:13:00;103595.30;;;1.81;100.00
37878;BME280;23715;53.652;8.516;2023-01-25T09:18:00;103578.45;;;1.88;100.00
37878;BME280;23715;53.652;8.516;2023-01-25T09:23:01;103575.71;;;2.03;100.00
37878;BME280;23715;53.652;8.516;2023-01-25T09:28:06;103577.34;;;2.24;100.00
37878;BME280;23715;53.652;8.516;2023-01-25T09:33:07;103573.41;;;2.15;100.00
37878;BME280;23715;53.652;8.516;2023-01-25T09:38:08;103571.16;;;2.21;100.00
37878;BME280;23715;53.652;8.516;2023-01-25T09:48:45;103550.28;;;1.62;100.00
37878;BME280;23715;53.652;8.516;2023-01-25T09:53:49;103558.19;;;1.73;100.00
37878;BME280;23715;53.652;8.516;2023-01-25T09:58:59;103559.06;;;1.75;100.00
37878;BME280;23715;53.652;8.516;2023-01-25T10:03:59;103533.48;;;1.63;100.00
37878;BME280;23715;53.652;8.516;2023-01-25T10:09:04;103531.70;;;1.62;100.00
37878;BME280;23715;53.652;8.516;2023-01-25T10:14:16;103524.47;;;1.90;100.00
37878;BME280;23715;53.652;8.516;2023-01-25T10:30:28;103507.92;;;2.12;100.00
37878;BME280;23715;53.652;8.516;2023-01-25T10:35:33;103514.42;;;1.71;100.00
37878;BME280;23715;53.652;8.516;2023-01-25T10:40:45;103495.48;;;1.58;100.00
37878;BME280;23715;53.652;8.516;2023-01-25T10:45:40;103492.84;;;1.55;100.00
37878;BME280;23715;53.652;8.516;2023-01-25T10:50:45;103487.37;;;1.81;100.00
37878;BME280;23715;53.652;8.516;2023-01-25T11:01:01;103487.13;;;1.51;100.00
37878;BME280;23715;53.652;8.516;2023-01-25T11:06:02;103475.27;;;1.32;100.00
37878;BME280;23715;53.652;8.516;2023-01-25T11:16:36;103443.30;;;1.60;100.00
37878;BME280;23715;53.652;8.516;2023-01-25T11:21:38;103441.34;;;1.90;100.00
37878;BME280;23715;53.652;8.516;2023-01-25T11:26:40;103435.40;;;1.52;100.00
37878;BME280;23715;53.652;8.516;2023-01-25T11:31:48;103419.33;;;1.72;100.00
37878;BME280;23715;53.652;8.516;2023-01-25T11:42:20;103393.24;;;1.75;100.00
37878;BME280;23715;53.652;8.516;2023-01-25T11:58:14;103365.00;;;1.66;100.00
37878;BME280;23715;53.652;8.516;2023-01-25T12:14:38;103325.58;;;1.77;100.00
37878;BME280;23715;53.652;8.516;2023-01-25T12:30:29;103283.22;;;1.67;100.00
37878;BME280;23715;53.652;8.516;2023-01-25T12:35:36;103273.46;;;1.71;100.00
37878;BME280;23715;53.652;8.516;2023-01-25T12:40:41;103270.33;;;2.12;100.00
37878;BME280;23715;53.652;8.516;2023-01-25T12:45:37;103254.50;;;1.65;100.00
37878;BME280;23715;53.652;8.516;2023-01-25T12:55:44;103225.20;;;1.74;100.00
37878;BME280;23715;53.652;8.516;2023-01-25T13:11:07;103205.91;;;1.63;100.00
37878;BME280;23715;53.652;8.516;2023-01-25T13:16:22;103198.26;;;1.73;100.00
37878;BME280;23715;53.652;8.516;2023-01-25T13:21:40;103188.53;;;1.72;100.00
37878;BME280;23715;53.652;8.516;2023-01-25T13:31:56;103193.52;;;1.62;100.00
37878;BME280;23715;53.652;8.516;2023-01-25T13:36:56;103175.24;;;1.75;100.00
37878;BME280;23715;53.652;8.516;2023-01-25T13:42:15;103169.26;;;1.58;100.00
37878;BME280;23715;53.652;8.516;2023-01-25T13:47:11;103166.59;;;1.60;100.00
37878;BME280;23715;53.652;8.516;2023-01-25T13:52:17;103154.30;;;1.51;100.00
37878;BME280;23715;53.652;8.516;2023-01-25T14:02:24;103123.41;;;1.48;100.00
37878;BME280;23715;53.652;8.516;2023-01-25T14:07:33;103135.95;;;1.69;100.00
37878;BME280;23715;53.652;8.516;2023-01-25T14:12:35;103140.08;;;1.58;100.00
37878;BME280;23715;53.652;8.516;2023-01-25T14:17:34;103136.49;;;1.62;100.00
37878;BME280;23715;53.652;8.516;2023-01-25T14:22:34;103136.56;;;1.58;100.00
37878;BME280;23715;53.652;8.516;2023-01-25T14:32:43;103147.25;;;1.88;100.00
37878;BME280;23715;53.652;8.516;2023-01-25T14:37:43;103138.39;;;1.51;100.00
37878;BME280;23715;53.652;8.516;2023-01-25T14:42:43;103140.11;;;1.55;100.00
37878;BME280;23715;53.652;8.516;2023-01-25T14:47:44;103143.26;;;1.06;100.00
37878;BME280;23715;53.652;8.516;2023-01-25T14:52:45;103135.67;;;1.16;100.00
37878;BME280;23715;53.652;8.516;2023-01-25T14:57:45;103139.02;;;1.35;100.00
37878;BME280;23715;53.652;8.516;2023-01-25T15:02:50;103129.27;;;1.77;100.00
37878;BME280;23715;53.652;8.516;2023-01-25T15:07:54;103117.20;;;1.48;100.00
37878;BME280;23715;53.652;8.516;2023-01-25T15:13:00;103098.25;;;1.42;100.00
37878;BME280;23715;53.652;8.516;2023-01-25T15:18:00;103090.66;;;1.51;100.00
37878;BME280;23715;53.652;8.516;2023-01-25T15:23:25;103082.56;;;1.63;100.00
37878;BME280;23715;53.652;8.516;2023-01-25T15:28:28;103067.44;;;1.70;100.00
37878;BME280;23715;53.652;8.516;2023-01-25T15:33:29;103055.44;;;1.40;100.00
37878;BME280;23715;53.652;8.516;2023-01-25T15:38:30;103059.11;;;1.29;100.00
37878;BME280;23715;53.652;8.516;2023-01-25T15:43:31;103060.55;;;1.17;100.00
37878;BME280;23715;53.652;8.516;2023-01-25T15:48:37;103061.41;;;1.19;100.00
37878;BME280;23715;53.652;8.516;2023-01-25T15:53:38;103069.73;;;1.26;100.00
37878;BME280;23715;53.652;8.516;2023-01-25T15:59:27;103066.81;;;1.48;100.00
37878;BME280;23715;53.652;8.516;2023-01-25T16:03:42;103068.11;;;1.51;100.00
37878;BME280;23715;53.652;8.516;2023-01-25T16:08:48;103067.86;;;1.34;100.00
37878;BME280;23715;53.652;8.516;2023-01-25T16:13:44;103064.14;;;1.11;100.00
37878;BME280;23715;53.652;8.516;2023-01-25T16:18:46;103077.78;;;1.17;100.00
37878;BME280;23715;53.652;8.516;2023-01-25T16:23:47;103090.21;;;1.50;100.00
37878;BME280;23715;53.652;8.516;2023-01-25T16:28:46;103085.92;;;1.40;100.00
37878;BME280;23715;53.652;8.516;2023-01-25T16:33:46;103076.61;;;1.44;100.00
37878;BME280;23715;53.652;8.516;2023-01-25T16:38:46;103073.43;;;1.10;100.00
37878;BME280;23715;53.652;8.516;2023-01-25T16:43:50;103062.53;;;1.38;100.00
37878;BME280;23715;53.652;8.516;2023-01-25T16:48:52;103053.23;;;1.41;100.00
37878;BME280;23715;53.652;8.516;2023-01-25T16:53:54;103019.09;;;1.48;100.00
37878;BME280;23715;53.652;8.516;2023-01-25T16:59:03;103016.48;;;1.46;100.00
37878;BME280;23715;53.652;8.516;2023-01-25T17:03:59;103011.02;;;1.55;100.00
37878;BME280;23715;53.652;8.516;2023-01-25T17:09:01;103000.88;;;1.22;100.00
37878;BME280;23715;53.652;8.516;2023-01-25T17:14:02;102997.80;;;1.19;100.00
37878;BME280;23715;53.652;8.516;2023-01-25T17:19:04;102992.77;;;1.32;100.00
37878;BME280;23715;53.652;8.516;2023-01-25T17:24:05;102974.27;;;1.29;100.00
37878;BME280;23715;53.652;8.516;2023-01-25T17:29:06;102981.03;;;1.19;100.00
37878;BME280;23715;53.652;8.516;2023-01-25T17:34:11;102980.92;;;0.90;100.00
37878;BME280;23715;53.652;8.516;2023-01-25T17:39:17;102980.73;;;1.08;100.00
37878;BME280;23715;53.652;8.516;2023-01-25T17:44:20;102976.38;;;1.03;100.00
37878;BME280;23715;53.652;8.516;2023-01-25T17:49:23;102962.85;;;0.88;100.00
37878;BME280;23715;53.652;8.516;2023-01-25T17:54:24;102959.75;;;0.88;100.00
37878;BME280;23715;53.652;8.516;2023-01-25T17:59:26;102963.83;;;1.15;100.00
37878;BME280;23715;53.652;8.516;2023-01-25T18:04:26;102944.64;;;1.31;100.00
37878;BME280;23715;53.652;8.516;2023-01-25T18:09:26;102942.23;;;1.13;100.00
37878;BME280;23715;53.652;8.516;2023-01-25T18:14:26;102937.82;;;0.74;100.00
37878;BME280;23715;53.652;8.516;2023-01-25T18:19:27;102939.75;;;1.01;100.00
37878;BME280;23715;53.652;8.516;2023-01-25T18:24:31;102929.92;;;1.09;100.00
37878;BME280;23715;53.652;8.516;2023-01-25T18:34:53;102924.89;;;1.22;100.00
37878;BME280;23715;53.652;8.516;2023-01-25T18:39:55;102923.78;;;1.05;100.00
37878;BME280;23715;53.652;8.516;2023-01-25T18:44:55;102906.99;;;1.36;100.00
37878;BME280;23715;53.652;8.516;2023-01-25T18:49:56;102895.78;;;0.84;100.00
37878;BME280;23715;53.652;8.516;2023-01-25T18:54:56;102910.25;;;0.92;100.00
37878;BME280;23715;53.652;8.516;2023-01-25T18:59:56;102916.41;;;0.94;100.00
37878;BME280;23715;53.652;8.516;2023-01-25T19:04:56;102896.72;;;1.13;100.00
37878;BME280;23715;53.652;8.516;2023-01-25T19:09:58;102896.23;;;1.17;100.00
37878;BME280;23715;53.652;8.516;2023-01-25T19:14:58;102904.50;;;1.27;100.00
37878;BME280;23715;53.652;8.516;2023-01-25T19:19:59;102901.42;;;1.25;100.00
37878;BME280;23715;53.652;8.516;2023-01-25T19:25:00;102885.37;;;1.04;100.00
37878;BME280;23715;53.652;8.516;2023-01-25T19:30:00;102883.83;;;1.19;100.00
37878;BME280;23715;53.652;8.516;2023-01-25T19:35:00;102886.81;;;0.94;100.00
37878;BME280;23715;53.652;8.516;2023-01-25T19:40:00;102898.80;;;0.91;100.00
37878;BME280;23715;53.652;8.516;2023-01-25T19:45:01;102887.28;;;0.92;100.00
37878;BME280;23715;53.652;8.516;2023-01-25T19:50:01;102883.78;;;0.90;100.00
37878;BME280;23715;53.652;8.516;2023-01-25T19:55:01;102880.95;;;1.34;100.00
37878;BME280;23715;53.652;8.516;2023-01-25T20:00:03;102874.20;;;1.12;100.00
37878;BME280;23715;53.652;8.516;2023-01-25T20:05:05;102867.48;;;0.88;100.00
37878;BME280;23715;53.652;8.516;2023-01-25T20:10:06;102872.69;;;0.95;100.00
37878;BME280;23715;53.652;8.516;2023-01-25T20:15:07;102886.59;;;0.78;100.00
37878;BME280;23715;53.652;8.516;2023-01-25T20:20:13;102875.27;;;0.98;100.00
37878;BME280;23715;53.652;8.516;2023-01-25T20:25:10;102868.53;;;1.08;100.00
37878;BME280;23715;53.652;8.516;2023-01-25T20:30:10;102871.36;;;0.95;100.00
37878;BME280;23715;53.652;8.516;2023-01-25T20:35:10;102872.62;;;0.98;100.00
37878;BME280;23715;53.652;8.516;2023-01-25T20:40:11;102879.55;;;1.10;100.00
37878;BME280;23715;53.652;8.516;2023-01-25T20:45:11;102866.49;;;1.27;100.00
37878;BME280;23715;53.652;8.516;2023-01-25T20:50:13;102868.14;;;1.04;100.00
37878;BME280;23715;53.652;8.516;2023-01-25T20:55:14;102882.09;;;1.18;100.00
37878;BME280;23715;53.652;8.516;2023-01-25T21:00:15;102858.98;;;1.28;100.00
37878;BME280;23715;53.652;8.516;2023-01-25T21:05:15;102858.64;;;1.21;100.00
37878;BME280;23715;53.652;8.516;2023-01-25T21:10:17;102853.89;;;1.44;100.00
37878;BME280;23715;53.652;8.516;2023-01-25T21:15:17;102838.03;;;1.40;100.00
37878;BME280;23715;53.652;8.516;2023-01-25T21:20:18;102833.22;;;1.36;100.00
37878;BME280;23715;53.652;8.516;2023-01-25T21:25:18;102841.36;;;1.54;100.00
37878;BME280;23715;53.652;8.516;2023-01-25T21:30:19;102828.79;;;1.36;100.00
37878;BME280;23715;53.652;8.516;2023-01-25T21:35:19;102822.94;;;1.45;100.00
37878;BME280;23715;53.652;8.516;2023-01-25T21:40:19;102818.52;;;1.44;100.00
37878;BME280;23715;53.652;8.516;2023-01-25T21:45:20;102811.27;;;1.28;100.00
37878;BME280;23715;53.652;8.516;2023-01-25T21:50:38;102807.32;;;0.96;100.00
37878;BME280;23715;53.652;8.516;2023-01-25T21:55:56;102802.23;;;1.12;100.00
37878;BME280;23715;53.652;8.516;2023-01-25T22:01:01;102810.10;;;1.17;100.00
37878;BME280;23715;53.652;8.516;2023-01-25T22:06:02;102813.00;;;1.29;100.00
37878;BME280;23715;53.652;8.516;2023-01-25T22:11:02;102803.69;;;1.32;100.00
37878;BME280;23715;53.652;8.516;2023-01-25T22:16:06;102805.08;;;1.56;100.00
37878;BME280;23715;53.652;8.516;2023-01-25T22:21:16;102797.52;;;1.31;100.00
37878;BME280;23715;53.652;8.516;2023-01-25T22:26:24;102788.17;;;1.34;100.00
37878;BME280;23715;53.652;8.516;2023-01-25T22:31:30;102775.30;;;1.11;100.00
37878;BME280;23715;53.652;8.516;2023-01-25T22:36:31;102780.91;;;1.20;100.00
37878;BME280;23715;53.652;8.516;2023-01-25T22:41:34;102768.89;;;0.97;100.00
37878;BME280;23715;53.652;8.516;2023-01-25T22:46:35;102763.80;;;1.14;100.00
37878;BME280;23715;53.652;8.516;2023-01-25T22:51:35;102762.77;;;1.21;100.00
37878;BME280;23715;53.652;8.516;2023-01-25T22:56:35;102769.36;;;1.24;100.00
37878;BME280;23715;53.652;8.516;2023-01-25T23:01:36;102767.68;;;1.19;100.00
37878;BME280;23715;53.652;8.516;2023-01-25T23:06:37;102763.69;;;1.46;100.00
37878;BME280;23715;53.652;8.516;2023-01-25T23:11:37;102758.95;;;1.39;100.00
37878;BME280;23715;53.652;8.516;2023-01-25T23:16:38;102759.50;;;1.32;100.00
37878;BME280;23715;53.652;8.516;2023-01-25T23:21:37;102752.09;;;1.27;100.00
37878;BME280;23715;53.652;8.516;2023-01-25T23:26:39;102753.64;;;1.41;100.00
37878;BME280;23715;53.652;8.516;2023-01-25T23:31:41;102747.64;;;1.29;100.00
37878;BME280;23715;53.652;8.516;2023-01-25T23:36:41;102742.89;;;1.21;100.00
37878;BME280;23715;53.652;8.516;2023-01-25T23:41:42;102734.86;;;1.27;100.00
37878;BME280;23715;53.652;8.516;2023-01-25T23:46:42;102730.34;;;1.32;100.00
37878;BME280;23715;53.652;8.516;2023-01-25T23:51:42;102717.16;;;1.29;100.00
37878;BME280;23715;53.652;8.516;2023-01-25T23:56:43;102720.38;;;1.47;100.00
